createdAt,value
2019-02-19T00:02:07.203Z,16.97
2019-02-19T00:06:19.851Z,14.47
2019-02-19T00:10:33.777Z,11.87
2019-02-19T00:14:46.704Z,13.67
2019-02-19T00:18:59.180Z,14.60
2019-02-19T00:23:12.139Z,15.20
2019-02-19T00:27:25.029Z,19.70
2019-02-19T00:31:38.153Z,17.53
2019-02-19T00:35:50.781Z,14.73
2019-02-19T00:40:03.775Z,13.70
2019-02-19T00:44:16.354Z,12.60
2019-02-19T00:48:29.152Z,13.90
2019-02-19T00:52:41.805Z,11.97
2019-02-19T00:56:54.352Z,11.27
2019-02-19T01:01:07.261Z,10.63
2019-02-19T01:05:20.097Z,9.10
2019-02-19T01:09:32.873Z,8.87
2019-02-19T01:13:45.913Z,8.97
2019-02-19T01:17:58.899Z,8.20
2019-02-19T01:22:11.733Z,8.87
2019-02-19T01:26:24.189Z,10.80
2019-02-19T01:30:36.601Z,7.03
2019-02-19T01:34:49.553Z,7.20
2019-02-19T01:39:02.154Z,5.70
2019-02-19T01:43:14.657Z,8.40
2019-02-19T01:47:27.838Z,8.13
2019-02-19T01:51:40.679Z,7.50
2019-02-19T01:55:53.244Z,6.67
2019-02-19T02:00:05.715Z,7.43
2019-02-19T02:04:18.048Z,7.17
2019-02-19T02:08:30.785Z,7.27
2019-02-19T02:12:43.112Z,8.03
2019-02-19T02:16:55.428Z,7.83
2019-02-19T02:21:08.312Z,7.37
2019-02-19T02:25:20.665Z,6.00
2019-02-19T02:29:32.976Z,4.77
2019-02-19T02:33:45.392Z,5.13
2019-02-19T02:37:58.242Z,5.97
2019-02-19T02:42:10.702Z,7.00
2019-02-19T02:46:23.687Z,6.43
2019-02-19T02:50:36.198Z,6.47
2019-02-19T02:54:49.727Z,6.43
2019-02-19T02:59:02.134Z,6.50
2019-02-19T03:03:15.583Z,6.30
2019-02-19T03:07:52.679Z,6.40
2019-02-19T03:12:05.465Z,5.87
2019-02-19T03:16:17.916Z,6.90
2019-02-19T03:20:30.900Z,6.90
2019-02-19T03:24:43.383Z,5.73
2019-02-19T03:28:56.901Z,7.63
2019-02-19T03:33:09.225Z,6.70
2019-02-19T03:37:21.624Z,6.17
2019-02-19T03:41:34.572Z,6.20
2019-02-19T03:45:47.046Z,6.63
2019-02-19T03:49:59.970Z,6.53
2019-02-19T03:54:12.429Z,7.93
2019-02-19T03:58:25.026Z,6.20
2019-02-19T04:02:41.267Z,6.30
2019-02-19T04:16:07.944Z,5.07
2019-02-19T04:43:00.464Z,5.73
2019-02-19T04:47:13.334Z,6.20
2019-02-19T04:51:25.891Z,6.33
2019-02-19T04:55:38.096Z,6.03
2019-02-19T04:59:50.988Z,4.90
2019-02-19T05:04:03.445Z,5.17
2019-02-19T05:08:15.858Z,5.60
2019-02-19T05:12:29.198Z,5.90
2019-02-19T05:16:41.672Z,6.33
2019-02-19T05:20:54.400Z,5.47
2019-02-19T05:25:06.927Z,5.33
2019-02-19T05:29:19.745Z,5.40
2019-02-19T05:33:32.296Z,4.87
2019-02-19T05:37:44.713Z,5.77
2019-02-19T05:41:57.675Z,5.77
2019-02-19T05:46:10.329Z,5.40
2019-02-19T05:50:23.043Z,8.83
2019-02-19T05:54:35.604Z,5.77
2019-02-19T05:58:47.811Z,5.50
2019-02-19T06:03:01.369Z,5.13
2019-02-19T06:07:14.347Z,5.10
2019-02-19T06:11:26.801Z,4.97
2019-02-19T06:15:39.545Z,4.80
2019-02-19T06:19:52.306Z,3.73
2019-02-19T06:24:04.808Z,4.10
2019-02-19T06:28:17.208Z,5.53
2019-02-19T06:32:29.864Z,4.50
2019-02-19T06:36:42.311Z,4.50
2019-02-19T06:40:54.889Z,4.13
2019-02-19T06:45:07.627Z,4.23
2019-02-19T06:49:20.048Z,4.80
2019-02-19T06:53:32.388Z,4.97
2019-02-19T06:57:45.178Z,5.23
2019-02-19T07:02:17.484Z,5.30
2019-02-19T07:06:30.751Z,4.40
2019-02-19T07:10:43.277Z,4.30
2019-02-19T07:14:56.136Z,4.80
2019-02-19T07:19:10.043Z,4.83
2019-02-19T07:23:22.553Z,5.77
2019-02-19T07:27:34.860Z,5.87
2019-02-19T07:31:47.744Z,5.70
2019-02-19T07:36:00.209Z,4.57
2019-02-19T07:40:12.512Z,4.73
2019-02-19T07:44:25.983Z,5.13
2019-02-19T07:48:38.431Z,5.70
2019-02-19T07:52:51.164Z,5.53
2019-02-19T07:57:03.623Z,6.33
2019-02-19T08:01:16.600Z,7.10
2019-02-19T08:05:29.249Z,7.07
2019-02-19T08:09:42.155Z,7.70
2019-02-19T08:13:54.725Z,7.67
2019-02-19T08:18:07.149Z,7.43
2019-02-19T08:22:19.972Z,7.73
2019-02-19T08:26:32.469Z,7.27
2019-02-19T08:30:44.780Z,7.93
2019-02-19T08:34:57.673Z,7.90
2019-02-19T08:39:10.411Z,7.50
2019-02-19T08:43:23.273Z,7.20
2019-02-19T08:47:42.235Z,7.10
2019-02-19T08:51:55.847Z,7.73
2019-02-19T08:56:04.291Z,7.23
2019-02-19T09:00:16.806Z,7.37
2019-02-19T09:04:29.599Z,7.93
2019-02-19T09:08:42.164Z,7.73
2019-02-19T09:12:54.561Z,8.93
2019-02-19T09:17:06.968Z,8.00
2019-02-19T09:21:20.324Z,7.67
2019-02-19T09:25:32.699Z,8.17
2019-02-19T09:29:45.527Z,8.10
2019-02-19T09:33:57.981Z,7.90
2019-02-19T09:38:10.285Z,7.50
2019-02-19T09:42:23.382Z,8.13
2019-02-19T09:46:35.835Z,8.60
2019-02-19T09:50:48.728Z,9.40
2019-02-19T09:55:01.359Z,9.07
2019-02-19T09:59:14.283Z,8.43
2019-02-19T10:03:26.940Z,8.50
2019-02-19T10:07:39.923Z,8.33
2019-02-19T10:11:52.485Z,7.10
2019-02-19T10:16:04.920Z,7.13
2019-02-19T10:20:17.685Z,6.00
2019-02-19T10:24:30.145Z,6.63
2019-02-19T10:28:42.732Z,6.60
2019-02-19T10:32:55.086Z,6.60
2019-02-19T10:37:07.860Z,7.07
2019-02-19T10:41:20.476Z,7.13
2019-02-19T10:45:33.372Z,6.60
2019-02-19T10:49:46.073Z,6.10
2019-02-19T10:53:58.379Z,5.40
2019-02-19T10:58:11.583Z,5.80
2019-02-19T11:02:24.604Z,5.60
2019-02-19T11:06:38.961Z,5.57
2019-02-19T11:10:51.124Z,5.10
2019-02-19T11:15:03.538Z,5.17
2019-02-19T11:19:16.317Z,5.00
2019-02-19T11:23:28.769Z,5.63
2019-02-19T11:27:41.190Z,4.57
2019-02-19T11:31:54.137Z,4.93
2019-02-19T11:36:06.533Z,4.50
2019-02-19T11:40:18.846Z,5.07
2019-02-19T11:44:31.900Z,4.50
2019-02-19T11:48:44.391Z,4.13
2019-02-19T11:52:56.698Z,3.10
2019-02-19T11:57:09.617Z,3.57
2019-02-19T12:01:23.504Z,3.77
2019-02-19T12:05:36.004Z,2.53
2019-02-19T12:09:48.884Z,2.90
2019-02-19T12:14:01.445Z,3.83
2019-02-19T12:18:13.752Z,2.90
2019-02-19T12:22:26.652Z,3.47
2019-02-19T12:26:39.203Z,2.60
2019-02-19T12:30:52.748Z,3.00
2019-02-19T12:35:05.317Z,3.60
2019-02-19T12:39:18.049Z,3.37
2019-02-19T12:43:30.763Z,3.60
2019-02-19T12:47:43.500Z,3.10
2019-02-19T12:51:55.958Z,4.37
2019-02-19T12:56:08.365Z,3.70
2019-02-19T13:00:21.799Z,3.17
2019-02-19T13:04:34.291Z,3.40
2019-02-19T13:08:47.008Z,3.37
2019-02-19T13:12:59.356Z,3.93
2019-02-19T13:17:11.664Z,3.77
2019-02-19T13:21:25.118Z,3.60
2019-02-19T13:25:37.765Z,3.33
2019-02-19T13:29:50.944Z,2.90
2019-02-19T13:34:04.173Z,3.47
2019-02-19T13:38:16.993Z,3.43
2019-02-19T13:42:29.993Z,2.57
2019-02-19T13:46:43.794Z,2.70
2019-02-19T13:50:56.433Z,2.50
2019-02-19T13:55:16.645Z,3.10
2019-02-19T13:59:29.407Z,3.00
2019-02-19T14:03:41.884Z,2.73
2019-02-19T14:07:54.351Z,2.77
2019-02-19T14:12:07.160Z,2.93
2019-02-19T14:16:33.392Z,2.63
2019-02-19T14:21:11.749Z,3.03
2019-02-19T14:25:42.085Z,2.67
2019-02-19T14:30:16.621Z,2.43
2019-02-19T14:34:48.736Z,2.40
2019-02-19T14:39:18.833Z,2.70
2019-02-19T14:43:58.683Z,3.20
2019-02-19T14:48:30.377Z,3.00
2019-02-19T14:53:08.366Z,2.40
2019-02-19T14:57:47.953Z,2.30
2019-02-19T15:02:18.049Z,2.27
2019-02-19T15:06:47.975Z,2.43
2019-02-19T15:11:17.798Z,2.10
2019-02-19T15:16:01.139Z,2.43
2019-02-19T15:20:41.406Z,2.70
2019-02-19T15:25:06.670Z,2.53
2019-02-19T15:29:39.969Z,3.20
2019-02-19T15:34:29.413Z,2.40
2019-02-19T15:39:01.182Z,2.43
2019-02-19T15:43:50.460Z,2.53
2019-02-19T15:48:25.097Z,1.93
2019-02-19T15:52:58.912Z,2.30
2019-02-19T15:57:27.241Z,2.10
2019-02-19T16:01:57.027Z,1.80
2019-02-19T16:06:47.022Z,2.60
2019-02-19T16:11:17.151Z,3.60
2019-02-19T16:16:03.679Z,1.73
2019-02-19T16:20:26.151Z,1.70
2019-02-19T16:25:00.035Z,1.80
2019-02-19T16:29:32.323Z,1.70
2019-02-19T16:34:01.573Z,1.80
2019-02-19T16:38:42.306Z,1.97
2019-02-19T16:43:13.460Z,1.80
2019-02-19T16:47:33.904Z,1.60
2019-02-19T16:52:17.510Z,1.67
2019-02-19T16:56:55.220Z,1.30
2019-02-19T17:01:21.611Z,2.07
2019-02-19T17:05:51.897Z,2.07
2019-02-19T17:10:21.720Z,1.73
2019-02-19T17:14:58.949Z,1.87
2019-02-19T17:19:42.056Z,2.30
2019-02-19T17:24:07.613Z,2.10
2019-02-19T17:28:34.260Z,2.20
2019-02-19T17:33:08.863Z,2.67
2019-02-19T17:37:42.986Z,2.10
2019-02-19T17:42:16.224Z,1.90
2019-02-19T17:46:53.692Z,2.23
2019-02-19T17:51:21.868Z,2.30
2019-02-19T17:55:55.999Z,2.27
2019-02-19T18:00:35.141Z,2.83
2019-02-19T18:04:55.997Z,2.13
2019-02-19T18:09:14.651Z,2.17
2019-02-19T18:13:48.741Z,2.90
2019-02-19T18:18:18.978Z,3.03
2019-02-19T18:22:31.878Z,4.03
2019-02-19T18:26:44.785Z,3.80
2019-02-19T18:30:57.629Z,3.30
2019-02-19T18:35:10.504Z,2.70
2019-02-19T18:39:23.588Z,2.70
2019-02-19T18:43:35.929Z,2.70
2019-02-19T18:47:49.229Z,3.00
2019-02-19T18:52:02.169Z,2.90
2019-02-19T18:56:14.613Z,3.83
2019-02-19T19:00:28.160Z,3.30
2019-02-19T19:04:40.681Z,3.73
2019-02-19T19:08:53.564Z,4.63
2019-02-19T19:13:06.029Z,5.07
2019-02-19T19:17:18.518Z,5.30
2019-02-19T19:21:31.328Z,5.93
2019-02-19T19:25:43.792Z,5.93
2019-02-19T19:29:56.198Z,6.07
2019-02-19T19:34:08.608Z,5.37
2019-02-19T19:38:22.589Z,4.87
2019-02-19T19:42:35.352Z,4.73
2019-02-19T19:46:47.806Z,4.73
2019-02-19T19:51:00.380Z,3.83
2019-02-19T19:55:13.162Z,4.10
2019-02-19T19:59:25.804Z,3.80
2019-02-19T20:03:39.385Z,3.93
2019-02-19T20:07:51.869Z,4.07
2019-02-19T20:12:04.795Z,3.47
2019-02-19T20:16:17.303Z,3.50
2019-02-19T20:20:30.430Z,3.40
2019-02-19T20:24:43.104Z,3.50
2019-02-19T20:28:56.729Z,3.23
2019-02-19T20:33:10.611Z,3.90
2019-02-19T20:37:23.760Z,3.70
2019-02-19T20:41:36.346Z,3.17
2019-02-19T20:45:49.340Z,3.23
2019-02-19T20:50:03.084Z,2.70
2019-02-19T20:54:15.809Z,2.73
2019-02-19T20:58:28.698Z,2.97
2019-02-19T21:02:41.218Z,3.07
2019-02-19T21:06:53.907Z,3.57
2019-02-19T21:11:06.511Z,3.77
2019-02-19T21:15:19.180Z,4.20
2019-02-19T21:19:31.944Z,3.87
2019-02-19T21:23:44.471Z,4.63
2019-02-19T21:27:57.214Z,3.50
2019-02-19T21:32:09.661Z,3.97
2019-02-19T21:36:22.076Z,4.20
2019-02-19T21:40:34.970Z,4.10
2019-02-19T21:44:47.534Z,4.20
2019-02-19T21:49:00.046Z,4.17
2019-02-19T21:53:12.818Z,4.63
2019-02-19T21:57:25.556Z,6.53
2019-02-19T22:01:38.471Z,5.53
2019-02-19T22:05:51.165Z,5.47
2019-02-19T22:10:04.581Z,5.10
2019-02-19T22:14:16.991Z,6.20
2019-02-19T22:18:29.779Z,6.17
2019-02-19T22:22:42.258Z,5.30
2019-02-19T22:26:54.727Z,5.27
2019-02-19T22:31:07.428Z,5.13
2019-02-19T22:35:19.889Z,5.80
2019-02-19T22:39:32.300Z,5.27
2019-02-19T22:43:45.206Z,4.93
2019-02-19T22:47:57.653Z,5.23
2019-02-19T22:52:12.627Z,5.17
2019-02-19T22:56:37.147Z,4.67
2019-02-19T23:01:16.557Z,4.93
2019-02-19T23:05:45.082Z,4.40
2019-02-19T23:09:59.640Z,4.63
2019-02-19T23:14:12.086Z,5.23
2019-02-19T23:18:24.936Z,4.20
2019-02-19T23:22:37.392Z,4.47
2019-02-19T23:26:49.806Z,4.10
2019-02-19T23:31:02.762Z,3.07
2019-02-19T23:35:22.854Z,3.73
2019-02-19T23:39:43.431Z,3.77
2019-02-19T23:43:49.092Z,3.43
2019-02-19T23:48:01.878Z,3.87
2019-02-19T23:52:14.233Z,4.03
2019-02-19T23:56:26.880Z,3.40
